sensor_id;sensor_type;location;lat;lon;timestamp;P1;durP1;ratioP1;P2;durP2;ratioP2
359;SDS011;168;48.872;9.226;2023-06-26T00:02:03;10.20;;;9.20;;
359;SDS011;168;48.872;9.226;2023-06-26T00:04:30;9.27;;;8.37;;
359;SDS011;168;48.872;9.226;2023-06-26T00:06:59;9.70;;;8.70;;
359;SDS011;168;48.872;9.226;2023-06-26T00:09:27;11.10;;;9.97;;
359;SDS011;168;48.872;9.226;2023-06-26T00:11:54;9.83;;;8.83;;
359;SDS011;168;48.872;9.226;2023-06-26T00:14:21;10.03;;;9.03;;
359;SDS011;168;48.872;9.226;2023-06-26T00:16:49;10.47;;;9.40;;
359;SDS011;168;48.872;9.226;2023-06-26T00:19:16;10.13;;;9.13;;
359;SDS011;168;48.872;9.226;2023-06-26T00:21:44;10.17;;;9.00;;
359;SDS011;168;48.872;9.226;2023-06-26T00:24:14;10.23;;;9.23;;
359;SDS011;168;48.872;9.226;2023-06-26T00:26:42;9.40;;;8.50;;
359;SDS011;168;48.872;9.226;2023-06-26T00:29:10;9.73;;;8.73;;
359;SDS011;168;48.872;9.226;2023-06-26T00:31:37;12.83;;;10.23;;
359;SDS011;168;48.872;9.226;2023-06-26T00:34:05;9.93;;;8.90;;
359;SDS011;168;48.872;9.226;2023-06-26T00:36:33;10.80;;;9.30;;
359;SDS011;168;48.872;9.226;2023-06-26T00:39:00;10.60;;;9.60;;
359;SDS011;168;48.872;9.226;2023-06-26T00:41:30;10.13;;;9.20;;
359;SDS011;168;48.872;9.226;2023-06-26T00:43:57;11.13;;;10.03;;
359;SDS011;168;48.872;9.226;2023-06-26T00:46:25;10.77;;;9.77;;
359;SDS011;168;48.872;9.226;2023-06-26T00:48:53;9.97;;;8.97;;
359;SDS011;168;48.872;9.226;2023-06-26T00:51:21;10.03;;;9.07;;
359;SDS011;168;48.872;9.226;2023-06-26T00:53:49;10.53;;;9.63;;
359;SDS011;168;48.872;9.226;2023-06-26T00:56:17;9.90;;;9.00;;
359;SDS011;168;48.872;9.226;2023-06-26T00:58:47;10.13;;;9.10;;
359;SDS011;168;48.872;9.226;2023-06-26T01:01:14;9.47;;;8.37;;
359;SDS011;168;48.872;9.226;2023-06-26T01:03:43;9.10;;;8.20;;
359;SDS011;168;48.872;9.226;2023-06-26T01:06:11;10.07;;;9.17;;
359;SDS011;168;48.872;9.226;2023-06-26T01:08:41;9.63;;;8.73;;
359;SDS011;168;48.872;9.226;2023-06-26T01:11:09;10.07;;;9.00;;
359;SDS011;168;48.872;9.226;2023-06-26T01:13:37;9.37;;;8.47;;
359;SDS011;168;48.872;9.226;2023-06-26T01:16:08;9.73;;;8.83;;
359;SDS011;168;48.872;9.226;2023-06-26T01:18:37;9.93;;;8.93;;
359;SDS011;168;48.872;9.226;2023-06-26T01:21:09;9.00;;;8.20;;
359;SDS011;168;48.872;9.226;2023-06-26T01:23:38;9.70;;;8.80;;
359;SDS011;168;48.872;9.226;2023-06-26T01:26:17;8.83;;;8.03;;
359;SDS011;168;48.872;9.226;2023-06-26T01:28:47;9.50;;;8.60;;
359;SDS011;168;48.872;9.226;2023-06-26T01:31:16;10.60;;;8.53;;
359;SDS011;168;48.872;9.226;2023-06-26T01:33:45;9.43;;;8.23;;
359;SDS011;168;48.872;9.226;2023-06-26T01:36:14;9.80;;;8.80;;
359;SDS011;168;48.872;9.226;2023-06-26T01:38:41;10.20;;;9.20;;
359;SDS011;168;48.872;9.226;2023-06-26T01:41:09;10.13;;;8.83;;
359;SDS011;168;48.872;9.226;2023-06-26T01:43:41;9.00;;;8.20;;
359;SDS011;168;48.872;9.226;2023-06-26T01:46:30;9.20;;;8.30;;
359;SDS011;168;48.872;9.226;2023-06-26T01:49:06;11.17;;;10.07;;
359;SDS011;168;48.872;9.226;2023-06-26T01:51:41;9.50;;;8.60;;
359;SDS011;168;48.872;9.226;2023-06-26T01:54:14;10.87;;;9.40;;
359;SDS011;168;48.872;9.226;2023-06-26T01:56:45;9.70;;;8.70;;
359;SDS011;168;48.872;9.226;2023-06-26T01:59:17;10.80;;;9.70;;
359;SDS011;168;48.872;9.226;2023-06-26T02:01:46;11.03;;;9.70;;
359;SDS011;168;48.872;9.226;2023-06-26T02:04:14;9.97;;;8.93;;
359;SDS011;168;48.872;9.226;2023-06-26T02:06:41;10.43;;;9.43;;
359;SDS011;168;48.872;9.226;2023-06-26T02:09:09;9.23;;;8.33;;
359;SDS011;168;48.872;9.226;2023-06-26T02:11:37;9.73;;;8.83;;
359;SDS011;168;48.872;9.226;2023-06-26T02:14:04;9.87;;;8.83;;
359;SDS011;168;48.872;9.226;2023-06-26T02:16:33;10.93;;;9.87;;
359;SDS011;168;48.872;9.226;2023-06-26T02:19:00;10.37;;;9.27;;
359;SDS011;168;48.872;9.226;2023-06-26T02:21:27;10.00;;;9.00;;
359;SDS011;168;48.872;9.226;2023-06-26T02:23:55;9.53;;;8.53;;
359;SDS011;168;48.872;9.226;2023-06-26T02:26:22;10.00;;;9.10;;
359;SDS011;168;48.872;9.226;2023-06-26T02:28:50;10.87;;;9.77;;
359;SDS011;168;48.872;9.226;2023-06-26T02:31:18;9.40;;;8.60;;
359;SDS011;168;48.872;9.226;2023-06-26T02:33:46;9.20;;;8.30;;
359;SDS011;168;48.872;9.226;2023-06-26T02:36:15;10.50;;;9.50;;
359;SDS011;168;48.872;9.226;2023-06-26T02:38:43;9.77;;;8.83;;
359;SDS011;168;48.872;9.226;2023-06-26T02:41:10;9.33;;;8.43;;
359;SDS011;168;48.872;9.226;2023-06-26T02:43:37;9.30;;;8.30;;
359;SDS011;168;48.872;9.226;2023-06-26T02:46:05;9.80;;;8.80;;
359;SDS011;168;48.872;9.226;2023-06-26T02:48:32;9.83;;;8.83;;
359;SDS011;168;48.872;9.226;2023-06-26T02:51:01;9.63;;;8.63;;
359;SDS011;168;48.872;9.226;2023-06-26T02:53:29;9.63;;;8.63;;
359;SDS011;168;48.872;9.226;2023-06-26T02:55:57;9.10;;;8.30;;
359;SDS011;168;48.872;9.226;2023-06-26T02:58:24;10.63;;;9.13;;
359;SDS011;168;48.872;9.226;2023-06-26T03:00:52;9.07;;;8.17;;
359;SDS011;168;48.872;9.226;2023-06-26T03:03:19;9.87;;;8.97;;
359;SDS011;168;48.872;9.226;2023-06-26T03:05:47;10.67;;;9.70;;
359;SDS011;168;48.872;9.226;2023-06-26T03:08:16;10.60;;;9.60;;
359;SDS011;168;48.872;9.226;2023-06-26T03:10:43;10.50;;;9.50;;
359;SDS011;168;48.872;9.226;2023-06-26T03:13:10;9.43;;;8.33;;
359;SDS011;168;48.872;9.226;2023-06-26T03:15:38;9.83;;;8.93;;
359;SDS011;168;48.872;9.226;2023-06-26T03:18:05;10.13;;;9.17;;
359;SDS011;168;48.872;9.226;2023-06-26T03:20:32;10.13;;;9.13;;
359;SDS011;168;48.872;9.226;2023-06-26T03:23:00;9.30;;;8.43;;
359;SDS011;168;48.872;9.226;2023-06-26T03:25:29;11.10;;;9.90;;
359;SDS011;168;48.872;9.226;2023-06-26T03:27:56;10.60;;;9.50;;
359;SDS011;168;48.872;9.226;2023-06-26T03:30:23;10.37;;;9.30;;
359;SDS011;168;48.872;9.226;2023-06-26T03:32:51;10.07;;;9.00;;
359;SDS011;168;48.872;9.226;2023-06-26T03:35:19;12.00;;;9.40;;
359;SDS011;168;48.872;9.226;2023-06-26T03:37:46;9.90;;;8.97;;
359;SDS011;168;48.872;9.226;2023-06-26T03:40:14;9.77;;;8.80;;
359;SDS011;168;48.872;9.226;2023-06-26T03:42:43;10.43;;;9.40;;
359;SDS011;168;48.872;9.226;2023-06-26T03:45:10;10.30;;;9.30;;
359;SDS011;168;48.872;9.226;2023-06-26T03:47:38;9.93;;;9.03;;
359;SDS011;168;48.872;9.226;2023-06-26T03:50:06;10.10;;;9.07;;
359;SDS011;168;48.872;9.226;2023-06-26T03:52:33;9.63;;;8.73;;
359;SDS011;168;48.872;9.226;2023-06-26T03:55:01;10.60;;;9.47;;
359;SDS011;168;48.872;9.226;2023-06-26T03:57:29;9.70;;;8.80;;
359;SDS011;168;48.872;9.226;2023-06-26T03:59:58;10.20;;;9.20;;
359;SDS011;168;48.872;9.226;2023-06-26T04:02:26;9.07;;;8.27;;
359;SDS011;168;48.872;9.226;2023-06-26T04:04:53;11.93;;;10.47;;
359;SDS011;168;48.872;9.226;2023-06-26T04:07:21;10.40;;;9.30;;
359;SDS011;168;48.872;9.226;2023-06-26T04:09:49;9.00;;;8.20;;
359;SDS011;168;48.872;9.226;2023-06-26T04:12:16;9.67;;;8.77;;
359;SDS011;168;48.872;9.226;2023-06-26T04:14:44;10.33;;;9.37;;
359;SDS011;168;48.872;9.226;2023-06-26T04:17:12;10.20;;;9.20;;
359;SDS011;168;48.872;9.226;2023-06-26T04:19:40;11.67;;;8.63;;
359;SDS011;168;48.872;9.226;2023-06-26T04:22:07;9.70;;;8.80;;
359;SDS011;168;48.872;9.226;2023-06-26T04:24:35;11.10;;;9.80;;
359;SDS011;168;48.872;9.226;2023-06-26T04:27:02;11.70;;;9.43;;
359;SDS011;168;48.872;9.226;2023-06-26T04:29:31;11.00;;;9.67;;
359;SDS011;168;48.872;9.226;2023-06-26T04:31:58;10.00;;;9.10;;
359;SDS011;168;48.872;9.226;2023-06-26T04:34:28;9.60;;;8.70;;
359;SDS011;168;48.872;9.226;2023-06-26T04:36:58;10.17;;;8.80;;
359;SDS011;168;48.872;9.226;2023-06-26T04:39:25;9.57;;;8.67;;
359;SDS011;168;48.872;9.226;2023-06-26T04:41:53;9.60;;;8.60;;
359;SDS011;168;48.872;9.226;2023-06-26T04:44:20;10.70;;;9.70;;
359;SDS011;168;48.872;9.226;2023-06-26T04:46:47;9.70;;;8.80;;
359;SDS011;168;48.872;9.226;2023-06-26T04:49:17;9.87;;;8.97;;
359;SDS011;168;48.872;9.226;2023-06-26T04:51:47;10.97;;;9.63;;
359;SDS011;168;48.872;9.226;2023-06-26T04:54:16;10.00;;;9.10;;
359;SDS011;168;48.872;9.226;2023-06-26T04:56:44;10.73;;;9.63;;
359;SDS011;168;48.872;9.226;2023-06-26T04:59:12;10.63;;;9.60;;
359;SDS011;168;48.872;9.226;2023-06-26T05:01:40;11.10;;;10.00;;
359;SDS011;168;48.872;9.226;2023-06-26T05:04:08;10.13;;;9.13;;
359;SDS011;168;48.872;9.226;2023-06-26T05:06:36;11.30;;;10.30;;
359;SDS011;168;48.872;9.226;2023-06-26T05:09:05;10.93;;;9.90;;
359;SDS011;168;48.872;9.226;2023-06-26T05:11:33;10.30;;;9.40;;
359;SDS011;168;48.872;9.226;2023-06-26T05:14:00;12.27;;;10.20;;
359;SDS011;168;48.872;9.226;2023-06-26T05:16:28;10.40;;;9.47;;
359;SDS011;168;48.872;9.226;2023-06-26T05:18:55;10.77;;;9.53;;
359;SDS011;168;48.872;9.226;2023-06-26T05:21:22;9.83;;;8.83;;
359;SDS011;168;48.872;9.226;2023-06-26T05:23:50;10.73;;;9.70;;
359;SDS011;168;48.872;9.226;2023-06-26T05:26:24;9.90;;;9.00;;
359;SDS011;168;48.872;9.226;2023-06-26T05:28:53;10.87;;;9.87;;
359;SDS011;168;48.872;9.226;2023-06-26T05:31:21;11.77;;;10.47;;
359;SDS011;168;48.872;9.226;2023-06-26T05:33:48;10.47;;;9.47;;
359;SDS011;168;48.872;9.226;2023-06-26T05:36:22;11.27;;;10.20;;
359;SDS011;168;48.872;9.226;2023-06-26T05:38:54;11.00;;;9.90;;
359;SDS011;168;48.872;9.226;2023-06-26T05:41:25;11.97;;;10.70;;
359;SDS011;168;48.872;9.226;2023-06-26T05:43:52;11.27;;;10.07;;
359;SDS011;168;48.872;9.226;2023-06-26T05:46:23;9.57;;;8.57;;
359;SDS011;168;48.872;9.226;2023-06-26T05:48:51;9.80;;;8.90;;
359;SDS011;168;48.872;9.226;2023-06-26T05:51:22;10.33;;;9.33;;
359;SDS011;168;48.872;9.226;2023-06-26T05:53:50;10.33;;;9.20;;
359;SDS011;168;48.872;9.226;2023-06-26T05:56:19;10.23;;;9.23;;
359;SDS011;168;48.872;9.226;2023-06-26T05:58:48;9.60;;;8.63;;
359;SDS011;168;48.872;9.226;2023-06-26T06:01:18;10.57;;;9.47;;
359;SDS011;168;48.872;9.226;2023-06-26T06:03:45;10.00;;;9.00;;
359;SDS011;168;48.872;9.226;2023-06-26T06:06:13;11.17;;;10.07;;
359;SDS011;168;48.872;9.226;2023-06-26T06:08:43;10.20;;;9.20;;
359;SDS011;168;48.872;9.226;2023-06-26T06:11:10;10.30;;;9.30;;
359;SDS011;168;48.872;9.226;2023-06-26T06:13:38;10.90;;;9.80;;
359;SDS011;168;48.872;9.226;2023-06-26T06:16:07;15.93;;;10.07;;
359;SDS011;168;48.872;9.226;2023-06-26T06:18:34;10.93;;;9.60;;
359;SDS011;168;48.872;9.226;2023-06-26T06:21:02;10.97;;;9.87;;
359;SDS011;168;48.872;9.226;2023-06-26T06:23:29;12.13;;;10.90;;
359;SDS011;168;48.872;9.226;2023-06-26T06:25:56;11.70;;;10.37;;
359;SDS011;168;48.872;9.226;2023-06-26T06:28:31;9.90;;;9.00;;
359;SDS011;168;48.872;9.226;2023-06-26T06:31:09;10.87;;;9.77;;
359;SDS011;168;48.872;9.226;2023-06-26T06:33:43;10.77;;;9.70;;
359;SDS011;168;48.872;9.226;2023-06-26T06:36:11;10.27;;;9.27;;
359;SDS011;168;48.872;9.226;2023-06-26T06:38:41;8.90;;;8.10;;
359;SDS011;168;48.872;9.226;2023-06-26T06:41:10;10.50;;;9.50;;
359;SDS011;168;48.872;9.226;2023-06-26T06:43:38;9.90;;;9.00;;
359;SDS011;168;48.872;9.226;2023-06-26T06:46:05;9.87;;;8.97;;
359;SDS011;168;48.872;9.226;2023-06-26T06:48:42;10.43;;;9.43;;
359;SDS011;168;48.872;9.226;2023-06-26T06:51:24;9.90;;;9.00;;
359;SDS011;168;48.872;9.226;2023-06-26T06:53:55;9.53;;;8.70;;
359;SDS011;168;48.872;9.226;2023-06-26T06:56:23;9.80;;;8.83;;
359;SDS011;168;48.872;9.226;2023-06-26T06:58:50;10.83;;;9.83;;
359;SDS011;168;48.872;9.226;2023-06-26T07:01:17;9.43;;;8.63;;
359;SDS011;168;48.872;9.226;2023-06-26T07:03:46;9.90;;;9.00;;
359;SDS011;168;48.872;9.226;2023-06-26T07:06:14;10.83;;;9.80;;
359;SDS011;168;48.872;9.226;2023-06-26T07:08:41;9.40;;;8.10;;
359;SDS011;168;48.872;9.226;2023-06-26T07:11:09;8.93;;;8.13;;
359;SDS011;168;48.872;9.226;2023-06-26T07:13:41;9.10;;;8.30;;
359;SDS011;168;48.872;9.226;2023-06-26T07:16:14;10.40;;;9.23;;
359;SDS011;168;48.872;9.226;2023-06-26T07:18:42;10.43;;;9.43;;
359;SDS011;168;48.872;9.226;2023-06-26T07:21:11;11.10;;;9.33;;
359;SDS011;168;48.872;9.226;2023-06-26T07:23:39;15.60;;;14.10;;
359;SDS011;168;48.872;9.226;2023-06-26T07:26:06;9.43;;;8.63;;
359;SDS011;168;48.872;9.226;2023-06-26T07:28:34;9.80;;;8.90;;
359;SDS011;168;48.872;9.226;2023-06-26T07:31:01;9.70;;;8.70;;
359;SDS011;168;48.872;9.226;2023-06-26T07:33:29;11.17;;;8.80;;
359;SDS011;168;48.872;9.226;2023-06-26T07:36:00;9.40;;;8.53;;
359;SDS011;168;48.872;9.226;2023-06-26T07:38:31;10.03;;;9.07;;
359;SDS011;168;48.872;9.226;2023-06-26T07:40:58;9.90;;;8.90;;
359;SDS011;168;48.872;9.226;2023-06-26T07:43:26;11.00;;;10.00;;
359;SDS011;168;48.872;9.226;2023-06-26T07:45:54;9.70;;;8.80;;
359;SDS011;168;48.872;9.226;2023-06-26T07:48:24;9.30;;;8.40;;
359;SDS011;168;48.872;9.226;2023-06-26T07:50:51;10.33;;;9.33;;
359;SDS011;168;48.872;9.226;2023-06-26T07:53:19;8.73;;;7.90;;
359;SDS011;168;48.872;9.226;2023-06-26T07:55:48;9.87;;;8.83;;
359;SDS011;168;48.872;9.226;2023-06-26T07:58:16;9.33;;;8.53;;
359;SDS011;168;48.872;9.226;2023-06-26T08:00:43;8.87;;;8.00;;
359;SDS011;168;48.872;9.226;2023-06-26T08:03:11;9.23;;;8.30;;
359;SDS011;168;48.872;9.226;2023-06-26T08:05:38;10.17;;;9.17;;
359;SDS011;168;48.872;9.226;2023-06-26T08:08:06;9.40;;;8.57;;
359;SDS011;168;48.872;9.226;2023-06-26T08:10:33;9.07;;;8.20;;
359;SDS011;168;48.872;9.226;2023-06-26T08:13:02;10.00;;;8.97;;
359;SDS011;168;48.872;9.226;2023-06-26T08:15:30;10.47;;;8.50;;
359;SDS011;168;48.872;9.226;2023-06-26T08:17:57;9.83;;;8.27;;
359;SDS011;168;48.872;9.226;2023-06-26T08:20:24;9.30;;;8.40;;
359;SDS011;168;48.872;9.226;2023-06-26T08:22:52;8.40;;;7.60;;
359;SDS011;168;48.872;9.226;2023-06-26T08:25:19;8.90;;;8.07;;
359;SDS011;168;48.872;9.226;2023-06-26T08:27:47;8.63;;;7.87;;
359;SDS011;168;48.872;9.226;2023-06-26T08:30:16;8.13;;;7.40;;
359;SDS011;168;48.872;9.226;2023-06-26T08:32:43;8.83;;;7.60;;
359;SDS011;168;48.872;9.226;2023-06-26T08:35:11;8.07;;;7.37;;
359;SDS011;168;48.872;9.226;2023-06-26T08:37:39;8.47;;;7.67;;
359;SDS011;168;48.872;9.226;2023-06-26T08:40:06;8.43;;;7.63;;
359;SDS011;168;48.872;9.226;2023-06-26T08:42:34;8.50;;;7.17;;
359;SDS011;168;48.872;9.226;2023-06-26T08:45:02;8.00;;;7.27;;
359;SDS011;168;48.872;9.226;2023-06-26T08:47:34;8.33;;;7.60;;
359;SDS011;168;48.872;9.226;2023-06-26T08:50:17;7.73;;;7.07;;
359;SDS011;168;48.872;9.226;2023-06-26T08:52:58;8.37;;;7.67;;
359;SDS011;168;48.872;9.226;2023-06-26T08:55:33;8.57;;;7.87;;
359;SDS011;168;48.872;9.226;2023-06-26T08:58:04;7.83;;;7.13;;
359;SDS011;168;48.872;9.226;2023-06-26T09:00:32;8.60;;;7.70;;
359;SDS011;168;48.872;9.226;2023-06-26T09:03:01;7.97;;;7.33;;
359;SDS011;168;48.872;9.226;2023-06-26T09:05:30;7.50;;;6.50;;
359;SDS011;168;48.872;9.226;2023-06-26T09:07:58;7.87;;;7.17;;
359;SDS011;168;48.872;9.226;2023-06-26T09:10:26;7.90;;;7.03;;
359;SDS011;168;48.872;9.226;2023-06-26T09:12:55;8.73;;;7.87;;
359;SDS011;168;48.872;9.226;2023-06-26T09:15:23;8.23;;;6.93;;
359;SDS011;168;48.872;9.226;2023-06-26T09:17:57;9.67;;;7.77;;
359;SDS011;168;48.872;9.226;2023-06-26T09:20:28;7.50;;;6.80;;
359;SDS011;168;48.872;9.226;2023-06-26T09:23:01;8.17;;;7.40;;
359;SDS011;168;48.872;9.226;2023-06-26T09:25:33;7.40;;;6.70;;
359;SDS011;168;48.872;9.226;2023-06-26T09:28:05;8.10;;;7.40;;
359;SDS011;168;48.872;9.226;2023-06-26T09:30:32;7.70;;;7.10;;
359;SDS011;168;48.872;9.226;2023-06-26T09:33:12;7.57;;;6.97;;
359;SDS011;168;48.872;9.226;2023-06-26T09:35:42;7.43;;;6.73;;
359;SDS011;168;48.872;9.226;2023-06-26T09:38:10;6.90;;;6.27;;
359;SDS011;168;48.872;9.226;2023-06-26T09:40:38;7.63;;;6.77;;
359;SDS011;168;48.872;9.226;2023-06-26T09:43:06;7.40;;;6.70;;
359;SDS011;168;48.872;9.226;2023-06-26T09:45:37;7.30;;;6.57;;
359;SDS011;168;48.872;9.226;2023-06-26T09:48:07;7.20;;;6.60;;
359;SDS011;168;48.872;9.226;2023-06-26T09:50:35;7.57;;;6.90;;
359;SDS011;168;48.872;9.226;2023-06-26T09:53:08;8.93;;;6.60;;
359;SDS011;168;48.872;9.226;2023-06-26T09:55:36;6.90;;;6.30;;
359;SDS011;168;48.872;9.226;2023-06-26T09:58:05;8.13;;;6.80;;
359;SDS011;168;48.872;9.226;2023-06-26T10:00:32;7.80;;;7.00;;
359;SDS011;168;48.872;9.226;2023-06-26T10:03:00;7.77;;;7.07;;
359;SDS011;168;48.872;9.226;2023-06-26T10:05:28;7.70;;;7.00;;
359;SDS011;168;48.872;9.226;2023-06-26T10:07:55;8.10;;;7.40;;
359;SDS011;168;48.872;9.226;2023-06-26T10:10:25;10.23;;;7.20;;
359;SDS011;168;48.872;9.226;2023-06-26T10:12:54;9.20;;;8.30;;
359;SDS011;168;48.872;9.226;2023-06-26T10:15:31;8.10;;;7.30;;
359;SDS011;168;48.872;9.226;2023-06-26T10:18:00;7.40;;;6.80;;
359;SDS011;168;48.872;9.226;2023-06-26T10:20:29;9.33;;;8.47;;
359;SDS011;168;48.872;9.226;2023-06-26T10:22:57;8.40;;;7.70;;
359;SDS011;168;48.872;9.226;2023-06-26T10:25:30;8.87;;;7.97;;
359;SDS011;168;48.872;9.226;2023-06-26T10:28:00;8.57;;;7.77;;
359;SDS011;168;48.872;9.226;2023-06-26T10:30:31;7.67;;;7.07;;
359;SDS011;168;48.872;9.226;2023-06-26T10:33:02;9.47;;;8.57;;
359;SDS011;168;48.872;9.226;2023-06-26T10:35:31;9.10;;;8.30;;
359;SDS011;168;48.872;9.226;2023-06-26T10:38:02;8.53;;;7.83;;
359;SDS011;168;48.872;9.226;2023-06-26T10:40:41;13.93;;;8.70;;
359;SDS011;168;48.872;9.226;2023-06-26T10:43:11;9.17;;;8.17;;
359;SDS011;168;48.872;9.226;2023-06-26T10:45:43;10.97;;;8.10;;
359;SDS011;168;48.872;9.226;2023-06-26T10:48:13;8.60;;;7.80;;
359;SDS011;168;48.872;9.226;2023-06-26T10:50:41;9.50;;;8.60;;
359;SDS011;168;48.872;9.226;2023-06-26T10:53:10;9.40;;;8.60;;
359;SDS011;168;48.872;9.226;2023-06-26T10:55:47;9.63;;;8.70;;
359;SDS011;168;48.872;9.226;2023-06-26T10:58:27;9.13;;;8.27;;
359;SDS011;168;48.872;9.226;2023-06-26T11:03:41;10.17;;;9.27;;
359;SDS011;168;48.872;9.226;2023-06-26T11:06:11;9.30;;;8.57;;
359;SDS011;168;48.872;9.226;2023-06-26T11:08:46;9.10;;;8.30;;
359;SDS011;168;48.872;9.226;2023-06-26T11:11:16;8.70;;;8.00;;
359;SDS011;168;48.872;9.226;2023-06-26T11:13:44;9.37;;;8.40;;
359;SDS011;168;48.872;9.226;2023-06-26T11:16:12;9.90;;;9.00;;
359;SDS011;168;48.872;9.226;2023-06-26T11:18:41;9.20;;;8.40;;
359;SDS011;168;48.872;9.226;2023-06-26T11:21:09;10.10;;;9.10;;
359;SDS011;168;48.872;9.226;2023-06-26T11:23:39;9.53;;;8.67;;
359;SDS011;168;48.872;9.226;2023-06-26T11:26:13;9.07;;;8.37;;
359;SDS011;168;48.872;9.226;2023-06-26T11:28:50;9.03;;;8.23;;
359;SDS011;168;48.872;9.226;2023-06-26T11:31:23;8.50;;;7.67;;
359;SDS011;168;48.872;9.226;2023-06-26T11:33:52;10.20;;;9.30;;
359;SDS011;168;48.872;9.226;2023-06-26T11:36:22;8.53;;;7.83;;
359;SDS011;168;48.872;9.226;2023-06-26T11:38:52;8.87;;;8.17;;
359;SDS011;168;48.872;9.226;2023-06-26T11:41:22;10.63;;;8.27;;
359;SDS011;168;48.872;9.226;2023-06-26T11:43:50;9.40;;;8.47;;
359;SDS011;168;48.872;9.226;2023-06-26T11:46:20;9.00;;;8.27;;
359;SDS011;168;48.872;9.226;2023-06-26T11:48:48;8.77;;;7.93;;
359;SDS011;168;48.872;9.226;2023-06-26T11:51:17;9.50;;;8.57;;
359;SDS011;168;48.872;9.226;2023-06-26T11:53:45;9.80;;;8.37;;
359;SDS011;168;48.872;9.226;2023-06-26T11:56:14;8.97;;;8.07;;
359;SDS011;168;48.872;9.226;2023-06-26T11:58:56;8.80;;;8.10;;
359;SDS011;168;48.872;9.226;2023-06-26T12:01:26;9.93;;;9.03;;
359;SDS011;168;48.872;9.226;2023-06-26T12:03:58;9.30;;;7.60;;
359;SDS011;168;48.872;9.226;2023-06-26T12:06:28;8.80;;;8.10;;
359;SDS011;168;48.872;9.226;2023-06-26T12:08:57;8.90;;;8.10;;
359;SDS011;168;48.872;9.226;2023-06-26T12:11:27;8.50;;;7.80;;
359;SDS011;168;48.872;9.226;2023-06-26T12:13:57;8.90;;;8.17;;
359;SDS011;168;48.872;9.226;2023-06-26T12:16:25;8.83;;;8.00;;
359;SDS011;168;48.872;9.226;2023-06-26T12:18:58;9.10;;;8.20;;
359;SDS011;168;48.872;9.226;2023-06-26T12:21:42;9.50;;;8.57;;
359;SDS011;168;48.872;9.226;2023-06-26T12:24:13;9.07;;;8.27;;
359;SDS011;168;48.872;9.226;2023-06-26T12:26:42;9.13;;;8.33;;
359;SDS011;168;48.872;9.226;2023-06-26T12:29:12;10.00;;;8.97;;
359;SDS011;168;48.872;9.226;2023-06-26T12:31:40;8.90;;;8.20;;
359;SDS011;168;48.872;9.226;2023-06-26T12:34:09;9.20;;;7.90;;
359;SDS011;168;48.872;9.226;2023-06-26T12:36:39;10.07;;;9.07;;
359;SDS011;168;48.872;9.226;2023-06-26T12:39:09;8.37;;;7.53;;
359;SDS011;168;48.872;9.226;2023-06-26T12:41:44;8.33;;;7.63;;
359;SDS011;168;48.872;9.226;2023-06-26T12:44:25;7.80;;;7.10;;
359;SDS011;168;48.872;9.226;2023-06-26T12:46:54;8.77;;;7.97;;
359;SDS011;168;48.872;9.226;2023-06-26T12:49:28;9.03;;;8.13;;
359;SDS011;168;48.872;9.226;2023-06-26T12:51:58;9.43;;;8.50;;
359;SDS011;168;48.872;9.226;2023-06-26T12:54:25;8.80;;;8.00;;
359;SDS011;168;48.872;9.226;2023-06-26T12:56:53;8.70;;;7.90;;
359;SDS011;168;48.872;9.226;2023-06-26T12:59:23;8.70;;;8.00;;
359;SDS011;168;48.872;9.226;2023-06-26T13:01:51;8.07;;;7.37;;
359;SDS011;168;48.872;9.226;2023-06-26T13:04:18;8.83;;;8.03;;
359;SDS011;168;48.872;9.226;2023-06-26T13:06:46;9.10;;;8.10;;
359;SDS011;168;48.872;9.226;2023-06-26T13:09:14;8.47;;;7.73;;
359;SDS011;168;48.872;9.226;2023-06-26T13:11:41;8.93;;;7.80;;
359;SDS011;168;48.872;9.226;2023-06-26T13:14:09;7.87;;;7.07;;
359;SDS011;168;48.872;9.226;2023-06-26T13:16:38;7.43;;;6.73;;
359;SDS011;168;48.872;9.226;2023-06-26T13:19:06;8.03;;;7.40;;
359;SDS011;168;48.872;9.226;2023-06-26T13:21:33;7.63;;;6.93;;
359;SDS011;168;48.872;9.226;2023-06-26T13:24:01;8.53;;;6.87;;
359;SDS011;168;48.872;9.226;2023-06-26T13:26:30;8.48;;;6.65;;
359;SDS011;168;48.872;9.226;2023-06-26T13:28:58;7.00;;;6.40;;
359;SDS011;168;48.872;9.226;2023-06-26T13:31:25;6.87;;;6.27;;
359;SDS011;168;48.872;9.226;2023-06-26T13:33:56;6.77;;;6.17;;
359;SDS011;168;48.872;9.226;2023-06-26T13:36:24;7.43;;;6.67;;
359;SDS011;168;48.872;9.226;2023-06-26T13:38:52;6.67;;;6.13;;
359;SDS011;168;48.872;9.226;2023-06-26T13:41:22;7.40;;;6.70;;
359;SDS011;168;48.872;9.226;2023-06-26T13:43:49;6.97;;;6.13;;
359;SDS011;168;48.872;9.226;2023-06-26T13:46:17;7.23;;;6.50;;
359;SDS011;168;48.872;9.226;2023-06-26T13:48:55;6.60;;;5.93;;
359;SDS011;168;48.872;9.226;2023-06-26T13:51:24;6.50;;;5.87;;
359;SDS011;168;48.872;9.226;2023-06-26T13:53:52;8.50;;;5.70;;
359;SDS011;168;48.872;9.226;2023-06-26T13:56:20;7.13;;;5.80;;
359;SDS011;168;48.872;9.226;2023-06-26T13:58:49;6.07;;;5.47;;
359;SDS011;168;48.872;9.226;2023-06-26T14:01:17;6.47;;;5.50;;
359;SDS011;168;48.872;9.226;2023-06-26T14:03:46;7.13;;;5.60;;
359;SDS011;168;48.872;9.226;2023-06-26T14:06:15;6.50;;;5.30;;
359;SDS011;168;48.872;9.226;2023-06-26T14:08:43;7.67;;;5.00;;
359;SDS011;168;48.872;9.226;2023-06-26T14:11:11;4.90;;;4.40;;
359;SDS011;168;48.872;9.226;2023-06-26T14:13:38;5.77;;;5.07;;
359;SDS011;168;48.872;9.226;2023-06-26T14:16:06;5.10;;;4.60;;
359;SDS011;168;48.872;9.226;2023-06-26T14:18:34;7.57;;;4.70;;
359;SDS011;168;48.872;9.226;2023-06-26T14:21:01;5.70;;;4.30;;
359;SDS011;168;48.872;9.226;2023-06-26T14:23:31;6.30;;;4.10;;
359;SDS011;168;48.872;9.226;2023-06-26T14:25:58;5.30;;;4.33;;
359;SDS011;168;48.872;9.226;2023-06-26T14:28:27;5.90;;;3.90;;
359;SDS011;168;48.872;9.226;2023-06-26T14:31:03;5.37;;;4.70;;
359;SDS011;168;48.872;9.226;2023-06-26T14:33:30;10.03;;;4.57;;
359;SDS011;168;48.872;9.226;2023-06-26T14:35:57;7.30;;;4.90;;
359;SDS011;168;48.872;9.226;2023-06-26T14:38:25;4.60;;;4.20;;
359;SDS011;168;48.872;9.226;2023-06-26T14:40:54;5.30;;;4.60;;
359;SDS011;168;48.872;9.226;2023-06-26T14:43:21;5.13;;;4.63;;
359;SDS011;168;48.872;9.226;2023-06-26T14:45:49;5.33;;;4.60;;
359;SDS011;168;48.872;9.226;2023-06-26T14:48:17;4.63;;;4.10;;
359;SDS011;168;48.872;9.226;2023-06-26T14:50:44;6.13;;;4.37;;
359;SDS011;168;48.872;9.226;2023-06-26T14:53:17;5.00;;;3.80;;
359;SDS011;168;48.872;9.226;2023-06-26T14:55:44;5.20;;;4.57;;
359;SDS011;168;48.872;9.226;2023-06-26T14:58:13;5.60;;;4.13;;
359;SDS011;168;48.872;9.226;2023-06-26T15:00:40;4.80;;;4.13;;
359;SDS011;168;48.872;9.226;2023-06-26T15:03:09;4.93;;;4.37;;
359;SDS011;168;48.872;9.226;2023-06-26T15:05:36;5.43;;;4.40;;
359;SDS011;168;48.872;9.226;2023-06-26T15:08:04;5.30;;;4.80;;
359;SDS011;168;48.872;9.226;2023-06-26T15:10:31;4.80;;;4.30;;
359;SDS011;168;48.872;9.226;2023-06-26T15:12:59;5.50;;;4.50;;
359;SDS011;168;48.872;9.226;2023-06-26T15:15:27;5.30;;;4.60;;
359;SDS011;168;48.872;9.226;2023-06-26T15:17:57;5.80;;;5.03;;
359;SDS011;168;48.872;9.226;2023-06-26T15:20:25;8.53;;;5.50;;
359;SDS011;168;48.872;9.226;2023-06-26T15:22:58;5.70;;;5.10;;
359;SDS011;168;48.872;9.226;2023-06-26T15:25:30;5.63;;;5.03;;
359;SDS011;168;48.872;9.226;2023-06-26T15:28:00;6.87;;;5.70;;
359;SDS011;168;48.872;9.226;2023-06-26T15:30:29;6.60;;;5.77;;
359;SDS011;168;48.872;9.226;2023-06-26T15:32:56;6.70;;;6.07;;
359;SDS011;168;48.872;9.226;2023-06-26T15:35:24;6.83;;;6.23;;
359;SDS011;168;48.872;9.226;2023-06-26T15:37:52;9.30;;;6.97;;
359;SDS011;168;48.872;9.226;2023-06-26T15:40:20;7.40;;;6.00;;
359;SDS011;168;48.872;9.226;2023-06-26T15:42:47;7.27;;;6.40;;
359;SDS011;168;48.872;9.226;2023-06-26T15:45:16;8.80;;;6.40;;
359;SDS011;168;48.872;9.226;2023-06-26T15:47:45;7.73;;;7.03;;
359;SDS011;168;48.872;9.226;2023-06-26T15:50:13;8.10;;;7.30;;
359;SDS011;168;48.872;9.226;2023-06-26T15:52:40;8.37;;;7.50;;
359;SDS011;168;48.872;9.226;2023-06-26T15:55:08;9.40;;;7.80;;